createdAt,value
2023-03-22T00:03:12.670Z,6.56
2023-03-22T00:08:15.734Z,6.54
2023-03-22T00:13:17.378Z,6.51
2023-03-22T00:18:19.182Z,6.56
2023-03-22T00:23:23.464Z,6.49
2023-03-22T00:28:25.168Z,6.29
2023-03-22T00:33:27.859Z,6.23
2023-03-22T00:38:41.618Z,6.08
2023-03-22T00:43:44.962Z,6.26
2023-03-22T00:48:46.854Z,6.13
2023-03-22T00:53:49.981Z,6.22
2023-03-22T00:58:51.777Z,6.10
2023-03-22T01:03:53.547Z,6.09
2023-03-22T01:08:56.775Z,6.01
2023-03-22T01:13:58.726Z,5.97
2023-03-22T01:19:00.509Z,6.08
2023-03-22T01:24:03.961Z,6.04
2023-03-22T01:29:05.828Z,5.87
2023-03-22T01:34:07.512Z,5.99
2023-03-22T01:39:10.816Z,5.87
2023-03-22T01:44:15.190Z,6.19
2023-03-22T01:49:21.646Z,6.11
2023-03-22T01:54:30.416Z,5.79
2023-03-22T01:59:32.403Z,5.90
2023-03-22T02:04:35.915Z,5.85
2023-03-22T02:09:39.069Z,5.95
2023-03-22T02:14:56.297Z,5.84
2023-03-22T02:20:34.118Z,5.94
2023-03-22T02:26:05.073Z,5.91
2023-03-22T02:31:30.023Z,5.88
2023-03-22T02:37:03.576Z,5.93
2023-03-22T02:42:21.025Z,5.95
2023-03-22T02:47:29.092Z,5.85
2023-03-22T02:52:37.693Z,5.88
2023-03-22T02:57:48.026Z,5.88
2023-03-22T03:02:53.639Z,5.81
2023-03-22T03:07:59.492Z,5.82
2023-03-22T03:13:02.780Z,5.72
2023-03-22T03:18:18.963Z,5.80
2023-03-22T03:23:28.721Z,5.91
2023-03-22T03:28:38.771Z,5.89
2023-03-22T03:33:49.061Z,5.76
2023-03-22T03:38:54.480Z,5.87
2023-03-22T03:43:58.957Z,5.92
2023-03-22T03:49:04.048Z,6.12
2023-03-22T03:54:06.468Z,5.88
2023-03-22T03:59:09.508Z,5.81
2023-03-22T04:04:11.275Z,5.77
2023-03-22T04:09:13.026Z,5.72
2023-03-22T04:14:16.309Z,5.78
2023-03-22T04:19:18.592Z,5.74
2023-03-22T04:24:20.658Z,5.73
2023-03-22T04:29:23.720Z,5.61
2023-03-22T04:34:25.550Z,5.61
2023-03-22T04:39:27.289Z,5.72
2023-03-22T04:44:30.394Z,5.62
2023-03-22T04:49:32.261Z,5.54
2023-03-22T04:54:34.271Z,5.59
2023-03-22T04:59:37.358Z,5.74
2023-03-22T05:04:39.062Z,5.67
2023-03-22T05:09:40.978Z,6.06
2023-03-22T05:14:44.173Z,6.29
2023-03-22T05:19:45.960Z,6.23
2023-03-22T05:24:47.772Z,6.06
2023-03-22T05:29:50.775Z,6.16
2023-03-22T05:34:52.588Z,6.15
2023-03-22T05:39:54.227Z,6.12
2023-03-22T05:44:57.460Z,6.09
2023-03-22T05:49:59.207Z,6.02
2023-03-22T05:55:01.151Z,6.14
2023-03-22T06:00:05.027Z,5.78
2023-03-22T06:05:07.678Z,5.74
2023-03-22T06:10:12.615Z,6.08
2023-03-22T06:15:15.884Z,6.29
2023-03-22T06:20:19.886Z,6.01
2023-03-22T06:25:21.556Z,6.24
2023-03-22T06:30:24.976Z,6.28
2023-03-22T06:35:26.884Z,6.25
2023-03-22T06:40:28.798Z,6.05
2023-03-22T06:45:31.921Z,6.28
2023-03-22T06:50:33.568Z,6.87
2023-03-22T06:55:35.378Z,7.00
2023-03-22T07:00:39.344Z,7.35
2023-03-22T07:05:41.330Z,8.05
2023-03-22T07:10:43.145Z,7.82
2023-03-22T07:15:46.890Z,7.96
2023-03-22T07:20:48.782Z,8.23
2023-03-22T07:25:50.516Z,8.39
2023-03-22T07:31:01.104Z,8.24
2023-03-22T07:36:02.850Z,9.02
2023-03-22T07:41:05.161Z,8.99
2023-03-22T07:46:08.520Z,8.87
2023-03-22T07:51:10.219Z,9.00
2023-03-22T07:56:11.986Z,8.88
2023-03-22T08:01:15.149Z,8.89
2023-03-22T08:06:17.274Z,8.73
2023-03-22T08:11:18.918Z,9.01
2023-03-22T08:16:22.103Z,9.17
2023-03-22T08:21:23.792Z,9.45
2023-03-22T08:26:25.520Z,9.76
2023-03-22T08:31:30.398Z,10.09
2023-03-22T08:36:32.065Z,11.31
2023-03-22T08:41:33.911Z,12.05
2023-03-22T08:52:00.472Z,11.79
2023-03-22T08:57:02.329Z,11.75
2023-03-22T09:02:04.147Z,11.98
2023-03-22T09:07:07.295Z,12.26
2023-03-22T09:12:09.646Z,12.69
2023-03-22T09:17:11.301Z,12.47
2023-03-22T09:22:14.574Z,12.88
2023-03-22T09:27:16.349Z,12.96
2023-03-22T09:32:18.618Z,12.71
2023-03-22T09:37:21.629Z,13.18
2023-03-22T09:42:34.920Z,13.09
2023-03-22T09:47:44.704Z,13.24
2023-03-22T09:52:49.559Z,13.01
2023-03-22T09:58:01.789Z,12.92
2023-03-22T10:03:14.796Z,13.47
2023-03-22T10:08:29.947Z,13.73
2023-03-22T10:13:36.766Z,13.68
2023-03-22T10:18:41.592Z,13.70
2023-03-22T10:23:48.059Z,13.88
2023-03-22T10:28:56.941Z,13.73
2023-03-22T10:34:02.166Z,14.27
2023-03-22T10:39:14.429Z,13.97
2023-03-22T10:44:19.026Z,13.87
2023-03-22T10:49:27.121Z,14.04
2023-03-22T10:54:31.916Z,13.78
2023-03-22T10:59:45.132Z,13.79
2023-03-22T11:04:47.973Z,13.79
2023-03-22T11:09:57.552Z,14.06
2023-03-22T11:14:59.386Z,14.03
2023-03-22T11:20:04.569Z,13.93
2023-03-22T11:25:15.780Z,14.00
2023-03-22T11:30:21.620Z,14.10
2023-03-22T11:35:25.212Z,13.99
2023-03-22T11:40:30.655Z,14.04
2023-03-22T11:45:36.697Z,14.04
2023-03-22T11:50:42.402Z,14.13
2023-03-22T11:55:48.476Z,14.07
2023-03-22T12:00:52.125Z,14.06
2023-03-22T12:05:54.270Z,14.35
2023-03-22T12:11:01.902Z,14.19
2023-03-22T12:16:06.447Z,14.02
2023-03-22T12:21:09.961Z,14.01
2023-03-22T12:26:17.254Z,14.05
2023-03-22T12:31:22.756Z,14.12
2023-03-22T12:36:29.934Z,13.88
2023-03-22T12:41:37.281Z,13.96
2023-03-22T12:46:48.377Z,14.02
2023-03-22T12:51:54.133Z,13.78
2023-03-22T12:56:57.604Z,13.72
2023-03-22T13:02:05.010Z,14.10
2023-03-22T13:07:14.352Z,13.76
2023-03-22T13:12:32.593Z,13.72
2023-03-22T13:17:40.542Z,13.85
2023-03-22T13:23:09.414Z,13.68
2023-03-22T13:28:24.372Z,13.78
2023-03-22T13:38:42.990Z,13.79
2023-03-22T13:43:48.632Z,13.58
2023-03-22T13:48:54.509Z,13.87
2023-03-22T13:54:01.739Z,13.63
2023-03-22T13:59:04.922Z,13.55
2023-03-22T14:04:11.117Z,13.36
2023-03-22T14:09:22.759Z,13.25
2023-03-22T14:14:29.545Z,13.07
2023-03-22T14:19:34.300Z,13.46
